Time;durP1;ratioP1;P1;durP2;ratioP2;P2;SDS_P1;SDS_P2;PMS_P1;PMS_P2;Temp;Humidity;BMP_temperature;BMP_pressure;BME280_temperature;BME280_humidity;BME280_pressure;Samples;Min_cycle;Max_cycle;Signal;HPM_P1;HPM_P2
2021/04/17 14:32:32;;;;;;;17.27;12.07;;;;;;;;;;5692328;23;20022;-70
2021/04/17 14:34:58;;;;;;;19.17;12.70;;;;;;;;;;4893206;29;20064;-63
2021/04/17 14:37:24;;;;;;;21.08;13.68;;;;;;;;;;4893972;29;20115;-64
2021/04/17 14:39:50;;;;;;;20.30;13.32;;;;;;;;;;4894560;29;20017;-62
2021/04/17 14:42:16;;;;;;;19.98;12.65;;;;;;;;;;4892667;29;20452;-68
2021/04/17 14:44:44;;;;;;;23.27;14.25;;;;;;;;;;4897353;29;20068;-73
2021/04/17 14:47:10;;;;;;;22.35;15.45;;;;;;;;;;4886756;29;20021;-79
2021/04/17 14:49:38;;;;;;;21.27;14.68;;;;;;;;;;4916332;29;20091;-68
2021/04/17 14:52:06;;;;;;;21.42;15.20;;;;;;;;;;4916017;29;20055;-75
2021/04/17 14:54:32;;;;;;;20.75;14.55;;;;;;;;;;4918179;29;20047;-63
2021/04/17 14:56:59;;;;;;;21.05;14.43;;;;;;;;;;4917384;29;20123;-63
2021/04/17 14:59:25;;;;;;;20.05;14.32;;;;;;;;;;4917140;29;20032;-66
2021/04/17 15:01:51;;;;;;;24.45;13.40;;;;;;;;;;4916491;29;20036;-75
2021/04/17 15:04:17;;;;;;;46.97;24.55;;;;;;;;;;4916597;29;20052;-74
2021/04/17 15:06:43;;;;;;;26.05;16.35;;;;;;;;;;4916282;29;20024;-78
2021/04/17 15:09:10;;;;;;;21.05;15.57;;;;;;;;;;4916466;29;20036;-74
2021/04/17 15:11:36;;;;;;;23.20;15.45;;;;;;;;;;4916334;29;20492;-76
2021/04/17 15:14:02;;;;;;;24.75;17.25;;;;;;;;;;4916284;29;20568;-77
2021/04/17 15:16:28;;;;;;;28.92;18.65;;;;;;;;;;4916735;29;20028;-76
2021/04/17 15:18:56;;;;;;;26.52;17.85;;;;;;;;;;4915298;29;20028;-73
2021/04/17 15:21:22;;;;;;;27.40;16.70;;;;;;;;;;5034900;23;20002;-66
2021/04/17 15:23:48;;;;;;;22.52;15.35;;;;;;;;;;4918103;29;20023;-75
2021/04/17 15:26:14;;;;;;;27.90;16.80;;;;;;;;;;4917084;29;20130;-69
2021/04/17 15:28:40;;;;;;;33.25;19.70;;;;;;;;;;4900634;29;20024;-67
2021/04/17 15:31:10;;;;;;;32.17;18.67;;;;;;;;;;4898936;29;20100;-67
2021/04/17 15:33:37;;;;;;;28.90;18.15;;;;;;;;;;4899030;29;20039;-68
2021/04/17 15:36:04;;;;;;;23.48;15.88;;;;;;;;;;4924093;29;20035;-73
2021/04/17 15:38:30;;;;;;;30.45;18.10;;;;;;;;;;4902550;29;20502;-78
2021/04/17 15:41:04;;;;;;;29.33;19.27;;;;;;;;;;4899812;29;20044;-76
2021/04/17 15:43:30;;;;;;;35.30;18.75;;;;;;;;;;4900128;29;20071;-73
2021/04/17 15:45:56;;;;;;;29.30;19.50;;;;;;;;;;4900271;29;20028;-78
2021/04/17 15:48:23;;;;;;;34.35;21.88;;;;;;;;;;4916562;29;20432;-79
2021/04/17 15:50:49;;;;;;;38.50;22.77;;;;;;;;;;4917138;29;20107;-71
2021/04/17 15:53:15;;;;;;;31.75;20.23;;;;;;;;;;4899128;29;20793;-71
2021/04/17 15:55:45;;;;;;;34.53;21.02;;;;;;;;;;4916538;29;20028;-81
2021/04/17 16:17:08;;;;;;;34.00;23.38;;;;;;;;;;4839600;29;20038;-79
2021/04/17 16:19:35;;;;;;;35.33;22.35;;;;;;;;;;4838803;29;20033;-79
2021/04/17 16:22:01;;;;;;;34.30;21.38;;;;;;;;;;4838201;29;20136;-81
2021/04/17 16:24:29;;;;;;;33.47;20.98;;;;;;;;;;4838968;29;20129;-77
2021/04/17 16:27:00;;;;;;;31.60;20.60;;;;;;;;;;4822712;29;20038;-79
2021/04/17 16:29:27;;;;;;;30.33;20.63;;;;;;;;;;4838404;29;20097;-77
2021/04/17 16:31:53;;;;;;;36.28;22.85;;;;;;;;;;4839514;29;20058;-75
2021/04/17 16:34:19;;;;;;;29.00;19.02;;;;;;;;;;4838860;29;20124;-74
2021/04/17 16:39:14;;;;;;;28.30;19.10;;;;;;;;;;4992618;23;20052;-74
2021/04/17 16:41:41;;;;;;;25.90;16.52;;;;;;;;;;4899424;29;20167;-76
2021/04/17 16:44:12;;;;;;;28.83;17.25;;;;;;;;;;4898860;29;20111;-79
2021/04/17 16:46:39;;;;;;;27.10;17.50;;;;;;;;;;4898381;29;20024;-72
2021/04/17 16:49:05;;;;;;;31.20;18.05;;;;;;;;;;4915294;29;20028;-70
2021/04/17 16:51:31;;;;;;;30.08;19.30;;;;;;;;;;4899229;29;20040;-80
2021/04/17 16:53:58;;;;;;;36.60;22.45;;;;;;;;;;4899327;29;20127;-77
2021/04/17 16:56:24;;;;;;;37.75;21.40;;;;;;;;;;4915197;29;20928;-76
2021/04/17 16:58:54;;;;;;;45.85;23.80;;;;;;;;;;4898655;29;20043;-66
2021/04/17 17:01:20;;;;;;;38.97;22.00;;;;;;;;;;4989201;23;20008;-65
2021/04/17 17:03:46;;;;;;;36.10;23.20;;;;;;;;;;4905844;29;20406;-72
2021/04/17 17:06:12;;;;;;;36.10;22.75;;;;;;;;;;4898837;29;20037;-78
2021/04/17 17:08:38;;;;;;;32.47;21.90;;;;;;;;;;4879008;29;20143;-79
2021/04/17 17:11:05;;;;;;;37.15;23.50;;;;;;;;;;4893429;29;20408;-82
2021/04/17 17:13:34;;;;;;;36.85;23.77;;;;;;;;;;4914288;29;20028;-78
2021/04/17 17:16:00;;;;;;;31.35;21.00;;;;;;;;;;4912999;29;20391;-73
2021/04/17 17:18:26;;;;;;;31.30;20.88;;;;;;;;;;4913949;29;20441;-76
2021/04/17 17:20:52;;;;;;;29.95;20.02;;;;;;;;;;4913504;29;20032;-74
2021/04/17 17:23:18;;;;;;;31.13;20.42;;;;;;;;;;4914365;29;20083;-73
2021/04/17 17:25:44;;;;;;;29.75;20.00;;;;;;;;;;4913028;29;20028;-69
2021/04/17 17:28:11;;;;;;;28.52;19.52;;;;;;;;;;4912304;29;20035;-74
2021/04/17 17:30:37;;;;;;;28.98;18.15;;;;;;;;;;4912202;29;20032;-73
2021/04/17 17:33:04;;;;;;;36.53;22.73;;;;;;;;;;4913114;29;20047;-72
2021/04/17 17:35:34;;;;;;;19.58;14.25;;;;;;;;;;4913123;29;20024;-76
2021/04/17 17:38:00;;;;;;;29.88;18.98;;;;;;;;;;4907036;29;20126;-68
2021/04/17 17:40:26;;;;;;;31.88;19.17;;;;;;;;;;5047393;23;20150;-68
2021/04/17 17:42:52;;;;;;;24.17;17.05;;;;;;;;;;4915656;29;20032;-68
2021/04/17 17:45:18;;;;;;;28.75;18.90;;;;;;;;;;4915721;29;20031;-68
2021/04/17 17:47:46;;;;;;;29.10;20.23;;;;;;;;;;4915239;29;20091;-71
2021/04/17 17:50:13;;;;;;;21.85;14.35;;;;;;;;;;4915183;29;20028;-70
2021/04/17 17:52:39;;;;;;;27.95;18.80;;;;;;;;;;4932466;29;20063;-68
2021/04/17 17:55:05;;;;;;;30.13;20.00;;;;;;;;;;4932510;29;20446;-70
2021/04/17 17:57:32;;;;;;;28.83;19.58;;;;;;;;;;4933421;29;20023;-76
2021/04/17 17:59:58;;;;;;;33.67;22.05;;;;;;;;;;4932707;29;20584;-72
2021/04/17 18:02:25;;;;;;;35.08;23.15;;;;;;;;;;4932362;29;20028;-69
2021/04/17 18:04:51;;;;;;;34.28;22.63;;;;;;;;;;4932531;29;20480;-71
2021/04/17 18:07:17;;;;;;;28.67;19.55;;;;;;;;;;4932968;29;20036;-73
2021/04/17 18:09:44;;;;;;;31.13;20.63;;;;;;;;;;4933345;29;20039;-70
2021/04/17 18:12:10;;;;;;;31.63;19.92;;;;;;;;;;4933236;29;20098;-80
2021/04/17 18:14:37;;;;;;;28.98;19.60;;;;;;;;;;4933769;29;20027;-75
2021/04/17 18:17:03;;;;;;;34.00;20.80;;;;;;;;;;4933602;29;20430;-79
2021/04/17 18:22:00;;;;;;;33.17;20.30;;;;;;;;;;4914443;29;20086;-66
2021/04/17 18:24:26;;;;;;;29.27;19.40;;;;;;;;;;4897300;29;20032;-71
2021/04/17 18:26:52;;;;;;;28.13;18.23;;;;;;;;;;4926503;29;20429;-72
2021/04/17 18:29:18;;;;;;;29.05;18.77;;;;;;;;;;4919860;29;20052;-68
2021/04/17 18:31:44;;;;;;;27.63;18.55;;;;;;;;;;4918533;29;20046;-66
2021/04/17 18:34:12;;;;;;;27.35;18.30;;;;;;;;;;4933555;29;20471;-67
2021/04/17 18:36:39;;;;;;;27.58;17.98;;;;;;;;;;4909056;29;20032;-71
2021/04/17 18:39:05;;;;;;;27.20;19.20;;;;;;;;;;4920457;29;20020;-68
2021/04/17 18:41:31;;;;;;;29.40;19.95;;;;;;;;;;5015642;23;20052;-68
2021/04/17 18:43:57;;;;;;;28.85;20.17;;;;;;;;;;4904410;29;20499;-69
2021/04/17 18:46:23;;;;;;;27.35;19.27;;;;;;;;;;4913151;29;20020;-69
2021/04/17 18:48:49;;;;;;;26.33;18.63;;;;;;;;;;4916441;29;20024;-68
2021/04/17 18:51:15;;;;;;;29.25;20.15;;;;;;;;;;4915450;29;20092;-67
2021/04/17 18:53:42;;;;;;;29.90;20.65;;;;;;;;;;4901030;29;20389;-68
2021/04/17 18:56:10;;;;;;;30.98;20.15;;;;;;;;;;4892991;29;20725;-74
2021/04/17 18:58:36;;;;;;;32.83;20.85;;;;;;;;;;4906026;29;20040;-70
2021/04/17 19:01:03;;;;;;;28.05;20.30;;;;;;;;;;4986900;23;20675;-65
2021/04/17 19:03:29;;;;;;;32.15;22.95;;;;;;;;;;4918044;29;20024;-66
2021/04/17 19:05:55;;;;;;;35.63;23.48;;;;;;;;;;4933707;29;20091;-67
2021/04/17 19:08:21;;;;;;;31.23;21.38;;;;;;;;;;4935345;29;20479;-67
2021/04/17 19:10:47;;;;;;;36.22;23.10;;;;;;;;;;4935280;29;20491;-66
2021/04/17 19:13:13;;;;;;;32.92;23.20;;;;;;;;;;4913049;29;20046;-67
2021/04/17 19:15:39;;;;;;;33.22;21.60;;;;;;;;;;4917177;29;20487;-67
2021/04/17 19:18:05;;;;;;;27.70;19.38;;;;;;;;;;4916799;29;20036;-66
2021/04/17 19:20:33;;;;;;;28.85;19.48;;;;;;;;;;5029776;23;20527;-69
2021/04/17 19:22:59;;;;;;;31.20;21.30;;;;;;;;;;4923622;29;20550;-67
2021/04/17 19:25:26;;;;;;;28.85;20.90;;;;;;;;;;4931619;29;20543;-66
2021/04/17 19:27:53;;;;;;;27.20;19.77;;;;;;;;;;4926215;29;20048;-67
2021/04/17 19:30:19;;;;;;;28.60;20.13;;;;;;;;;;4930881;29;20634;-68
2021/04/17 19:32:45;;;;;;;30.40;20.25;;;;;;;;;;4927724;29;20036;-66
2021/04/17 19:35:12;;;;;;;30.08;21.25;;;;;;;;;;4933916;29;20024;-68
2021/04/17 19:37:41;;;;;;;30.30;20.63;;;;;;;;;;4910474;29;20447;-67
2021/04/17 19:40:09;;;;;;;29.23;20.35;;;;;;;;;;4935290;29;20079;-66
2021/04/17 19:42:35;;;;;;;32.05;22.27;;;;;;;;;;4934118;29;20040;-68
2021/04/17 19:45:02;;;;;;;31.25;21.40;;;;;;;;;;4934304;29;20854;-66
2021/04/17 19:47:28;;;;;;;32.40;21.10;;;;;;;;;;4934762;29;20028;-67
2021/04/17 19:49:54;;;;;;;32.13;22.17;;;;;;;;;;4933668;29;20027;-65
2021/04/17 19:52:20;;;;;;;29.08;20.20;;;;;;;;;;4934643;29;20035;-69
2021/04/17 19:54:47;;;;;;;29.35;20.15;;;;;;;;;;4934907;29;20024;-68
2021/04/17 19:57:13;;;;;;;30.13;20.70;;;;;;;;;;4933547;29;20032;-67
2021/04/17 19:59:39;;;;;;;27.63;18.73;;;;;;;;;;4934310;29;20042;-69
2021/04/17 20:02:05;;;;;;;29.02;19.52;;;;;;;;;;4926372;29;20062;-66
2021/04/17 20:04:31;;;;;;;27.85;19.08;;;;;;;;;;4930144;29;20028;-67
2021/04/17 20:06:57;;;;;;;27.48;19.63;;;;;;;;;;4917233;29;20028;-66
2021/04/17 20:09:23;;;;;;;26.70;19.95;;;;;;;;;;4934529;29;20094;-67
2021/04/17 20:11:49;;;;;;;31.35;20.45;;;;;;;;;;4934211;29;20035;-69
2021/04/17 20:14:15;;;;;;;31.00;20.83;;;;;;;;;;4934436;29;20028;-66
2021/04/17 20:16:42;;;;;;;29.55;19.55;;;;;;;;;;4934490;29;20484;-69
2021/04/17 20:19:08;;;;;;;27.55;18.92;;;;;;;;;;4934141;29;20020;-68
2021/04/17 20:21:34;;;;;;;31.70;20.88;;;;;;;;;;4934236;29;20056;-67
2021/04/17 20:24:00;;;;;;;29.40;20.40;;;;;;;;;;4934448;29;20159;-69
2021/04/17 20:26:28;;;;;;;28.75;19.58;;;;;;;;;;4934516;29;20023;-68
2021/04/17 20:28:54;;;;;;;27.65;19.55;;;;;;;;;;4934226;29;20456;-68
2021/04/17 20:31:21;;;;;;;30.40;20.20;;;;;;;;;;4932191;29;20627;-67
2021/04/17 20:33:47;;;;;;;28.20;20.10;;;;;;;;;;4934043;29;20028;-67
2021/04/17 20:36:13;;;;;;;29.80;20.50;;;;;;;;;;4934396;29;20020;-68
2021/04/17 20:38:39;;;;;;;32.25;22.23;;;;;;;;;;4934188;29;20028;-69
2021/04/17 20:41:05;;;;;;;30.75;21.27;;;;;;;;;;4934579;29;20024;-68
2021/04/17 20:43:32;;;;;;;34.25;22.95;;;;;;;;;;4934064;29;20032;-67
2021/04/17 20:45:58;;;;;;;32.65;21.83;;;;;;;;;;4933595;29;20101;-67
2021/04/17 20:48:24;;;;;;;33.60;22.20;;;;;;;;;;4933977;29;20031;-66
2021/04/17 20:50:51;;;;;;;32.80;23.00;;;;;;;;;;4933896;29;20062;-67
2021/04/17 20:53:17;;;;;;;32.85;23.13;;;;;;;;;;4933200;29;20028;-68
2021/04/17 20:55:43;;;;;;;33.17;22.05;;;;;;;;;;4932141;29;20470;-67
2021/04/17 20:58:09;;;;;;;31.95;21.63;;;;;;;;;;4933599;29;20020;-69
2021/04/17 21:00:35;;;;;;;32.55;21.85;;;;;;;;;;4933155;29;20020;-68
2021/04/17 21:03:03;;;;;;;29.92;20.73;;;;;;;;;;4916382;29;20493;-67
2021/04/17 21:05:29;;;;;;;27.17;20.08;;;;;;;;;;4933847;29;20030;-71
2021/04/17 21:07:55;;;;;;;30.75;20.42;;;;;;;;;;4933501;29;20019;-68
2021/04/17 21:10:21;;;;;;;30.40;20.27;;;;;;;;;;4915908;29;20555;-69
2021/04/17 21:12:47;;;;;;;29.25;20.67;;;;;;;;;;4933496;29;20036;-68
2021/04/17 21:15:13;;;;;;;28.67;20.60;;;;;;;;;;4933470;29;20026;-68
2021/04/17 21:17:39;;;;;;;27.42;18.35;;;;;;;;;;4933641;29;20387;-67
2021/04/17 21:20:06;;;;;;;26.73;18.58;;;;;;;;;;4933582;29;20055;-68
2021/04/17 21:22:34;;;;;;;24.95;18.25;;;;;;;;;;4933787;29;20039;-68
2021/04/17 21:25:00;;;;;;;27.30;18.42;;;;;;;;;;4915677;29;20099;-66
2021/04/17 21:27:26;;;;;;;25.58;18.45;;;;;;;;;;4933777;29;20038;-67
2021/04/17 21:29:55;;;;;;;25.70;18.30;;;;;;;;;;4933125;29;20055;-68
2021/04/17 21:32:22;;;;;;;23.90;17.85;;;;;;;;;;4932949;29;20047;-68
2021/04/17 21:34:50;;;;;;;21.42;16.05;;;;;;;;;;4926772;29;20028;-71
2021/04/17 21:37:16;;;;;;;23.88;16.80;;;;;;;;;;4907014;29;20040;-65
2021/04/17 21:39:42;;;;;;;22.25;17.30;;;;;;;;;;4928049;29;20107;-72
2021/04/17 21:42:08;;;;;;;23.13;16.77;;;;;;;;;;4933346;29;20068;-65
2021/04/17 21:44:36;;;;;;;26.55;18.30;;;;;;;;;;4933067;29;20384;-66
2021/04/17 21:47:02;;;;;;;24.65;17.63;;;;;;;;;;4932917;29;20125;-66
2021/04/17 21:49:28;;;;;;;22.75;17.23;;;;;;;;;;4933351;29;20078;-65
2021/04/17 21:51:54;;;;;;;24.45;17.15;;;;;;;;;;4933035;29;20403;-64
2021/04/17 21:54:20;;;;;;;23.23;17.55;;;;;;;;;;4915068;29;20436;-64
2021/04/17 21:56:46;;;;;;;25.95;18.13;;;;;;;;;;4932976;29;20357;-65
2021/04/17 21:59:12;;;;;;;25.88;18.77;;;;;;;;;;4933163;29;20379;-63
2021/04/17 22:01:38;;;;;;;25.73;19.02;;;;;;;;;;4928652;29;20060;-63
2021/04/17 22:04:04;;;;;;;27.27;20.02;;;;;;;;;;4933050;29;20032;-63
2021/04/17 22:06:30;;;;;;;25.30;18.90;;;;;;;;;;4933324;29;20038;-62
2021/04/17 22:08:56;;;;;;;29.27;20.98;;;;;;;;;;4932969;29;20051;-63
2021/04/17 22:11:22;;;;;;;30.02;21.08;;;;;;;;;;4933197;29;20058;-63
2021/04/17 22:13:48;;;;;;;26.48;20.02;;;;;;;;;;4932966;29;20032;-61
2021/04/17 22:16:15;;;;;;;29.08;20.08;;;;;;;;;;4933169;29;20035;-62
2021/04/17 22:18:41;;;;;;;28.67;20.63;;;;;;;;;;4932994;29;20039;-61
2021/04/17 22:21:07;;;;;;;29.23;20.63;;;;;;;;;;4932533;29;20127;-62
2021/04/17 22:23:33;;;;;;;27.88;19.85;;;;;;;;;;4932666;29;20119;-61
2021/04/17 22:25:59;;;;;;;29.42;19.95;;;;;;;;;;4932526;29;20059;-62
2021/04/17 22:28:26;;;;;;;26.25;18.52;;;;;;;;;;4932949;29;20046;-65
